Terminal Aerodrome Forecast
Issued by NWS Jackson, KY

Home | Current Version | Previous Version | Text Only | Print | Product List | Glossary On
Versions: 1 2 3 4 5 6 7 8 9 10 11 12 13 14 15 16 17 18 19 20 21 22 23 24 25 26 27 28
006
FTUS43 KJKL 161157 AAA
TAFLOZ
TAF AMD
KLOZ 161157Z 1612/1712 00000KT P6SM SCT002 OVC080
     FM162200 19005KT P6SM VCSH BKN090
     FM170800 18007KT 3SM SHRA OVC015=

USA.gov is the U.S. government's official web portal to all federal, state and local government web resources and services.